Time;durP1;ratioP1;P1;durP2;ratioP2;P2;SDS_P1;SDS_P2;PMS_P1;PMS_P2;Temp;Humidity;BMP_temperature;BMP_pressure;BME280_temperature;BME280_humidity;BME280_pressure;Samples;Min_cycle;Max_cycle;Signal;HPM_P1;HPM_P2
2021/03/08 00:02:46;;;;;;;14.35;10.10;;;;;;;3.63;54.17;100148.66;1727352;83;21426;-54
2021/03/08 00:05:52;;;;;;;14.78;10.15;;;;;;;3.63;54.20;100141.89;1727112;83;21265;-55
2021/03/08 00:08:59;;;;;;;15.50;10.58;;;;;;;3.63;54.21;100144.08;1727365;83;21363;-54
2021/03/08 00:12:06;;;;;;;17.37;10.72;;;;;;;3.64;54.14;100134.99;1727100;83;21443;-53
2021/03/08 00:15:14;;;;;;;16.37;10.50;;;;;;;3.62;54.13;100136.97;1727465;83;21208;-54
2021/03/08 00:18:19;;;;;;;17.42;11.55;;;;;;;3.60;54.25;100134.89;1726796;83;21317;-53
2021/03/08 00:21:25;;;;;;;16.70;10.13;;;;;;;3.62;54.17;100124.79;1727172;83;21366;-53
2021/03/08 00:24:31;;;;;;;15.58;10.82;;;;;;;3.61;54.25;100122.22;1727270;83;21327;-53
2021/03/08 00:27:38;;;;;;;12.98;9.10;;;;;;;3.62;54.29;100115.80;1727426;83;21422;-53
2021/03/08 00:30:44;;;;;;;16.35;10.30;;;;;;;3.63;54.27;100110.77;1741233;82;21175;-53
2021/03/08 00:33:51;;;;;;;13.78;10.43;;;;;;;3.63;54.33;100106.20;1725913;83;21233;-54
2021/03/08 00:36:57;;;;;;;14.43;10.78;;;;;;;3.61;54.36;100093.81;1757217;81;21357;-54
2021/03/08 00:40:02;;;;;;;17.50;11.05;;;;;;;3.60;54.37;100090.23;1795986;79;21386;-55
2021/03/08 00:43:08;;;;;;;14.75;9.88;;;;;;;3.59;54.44;100083.61;1756828;81;21257;-53
2021/03/08 00:46:14;;;;;;;14.95;10.18;;;;;;;3.60;54.60;100088.88;1796044;79;21236;-54
2021/03/08 00:49:20;;;;;;;14.07;10.18;;;;;;;3.63;54.35;100090.48;1757193;81;21763;-54
2021/03/08 00:52:27;;;;;;;17.12;10.50;;;;;;;3.59;54.35;100081.77;1795896;79;21347;-54
2021/03/08 00:55:32;;;;;;;16.25;10.43;;;;;;;3.58;54.55;100084.13;1757208;81;22171;-55
2021/03/08 00:58:39;;;;;;;13.68;10.28;;;;;;;3.58;54.65;100081.42;1795497;79;21260;-54
2021/03/08 01:01:48;;;;;;;15.50;10.65;;;;;;;3.60;54.79;100076.70;1755923;81;21909;-54
2021/03/08 01:04:54;;;;;;;18.02;10.23;;;;;;;3.61;54.66;100073.03;1795694;79;21367;-55
2021/03/08 01:08:01;;;;;;;17.27;10.63;;;;;;;3.63;54.63;100063.41;1757119;81;21218;-55
2021/03/08 01:11:08;;;;;;;14.58;9.55;;;;;;;3.63;54.61;100056.12;1795857;79;21260;-54
2021/03/08 01:14:15;;;;;;;13.48;10.25;;;;;;;3.65;54.50;100052.80;1735488;82;21265;-53
2021/03/08 01:17:21;;;;;;;16.20;11.05;;;;;;;3.63;54.53;100046.66;1725668;83;21245;-53
2021/03/08 01:20:27;;;;;;;15.58;11.18;;;;;;;3.61;54.59;100050.02;1741099;82;21285;-54
2021/03/08 01:23:32;;;;;;;15.83;11.28;;;;;;;3.56;54.77;100038.76;1725876;83;21394;-54
2021/03/08 01:26:39;;;;;;;15.58;10.18;;;;;;;3.52;54.91;100041.89;1740989;82;21293;-53
2021/03/08 01:29:46;;;;;;;15.72;10.72;;;;;;;3.50;54.91;100050.15;1755643;81;21213;-54
2021/03/08 01:32:53;;;;;;;15.25;10.82;;;;;;;3.50;55.02;100043.87;1752782;81;21213;-55
2021/03/08 01:36:00;;;;;;;14.65;11.12;;;;;;;3.51;55.16;100038.80;1733673;82;21353;-55
2021/03/08 01:39:08;;;;;;;16.97;11.50;;;;;;;3.51;55.17;100036.97;1733583;82;21408;-54
2021/03/08 01:42:17;;;;;;;19.05;12.25;;;;;;;3.55;55.24;100043.79;1734293;82;21428;-56
2021/03/08 01:45:24;;;;;;;14.83;10.58;;;;;;;3.58;55.16;100039.48;1733630;82;21732;-54
2021/03/08 01:48:30;;;;;;;17.12;11.45;;;;;;;3.59;55.20;100038.47;1734045;82;21438;-55
2021/03/08 01:51:35;;;;;;;18.27;12.25;;;;;;;3.59;55.23;100038.47;1733963;82;21774;-55
2021/03/08 01:54:40;;;;;;;16.65;11.15;;;;;;;3.59;55.28;100027.65;1733881;82;21368;-55
2021/03/08 01:57:45;;;;;;;13.72;10.70;;;;;;;3.59;55.43;100024.95;1734029;82;21301;-53
2021/03/08 02:00:55;;;;;;;13.18;10.90;;;;;;;3.61;55.61;100019.39;1733878;82;21329;-53
2021/03/08 02:04:19;;;;;;;18.90;11.80;;;;;;;3.65;55.63;100026.22;1733800;82;21346;-53
2021/03/08 02:07:24;;;;;;;18.55;11.88;;;;;;;3.66;55.57;100027.46;1733599;82;21417;-55
2021/03/08 02:10:30;;;;;;;17.20;11.28;;;;;;;3.67;55.64;100031.00;1733814;82;21388;-54
2021/03/08 02:13:56;;;;;;;14.45;10.53;;;;;;;3.65;55.46;100031.14;1733575;82;21364;-53
2021/03/08 02:17:15;;;;;;;16.65;10.53;;;;;;;3.63;55.40;100027.71;1733628;82;21976;-53
2021/03/08 02:20:51;;;;;;;13.15;10.53;;;;;;;3.58;55.57;100020.55;1733868;82;21206;-53
2021/03/08 02:24:36;;;;;;;18.42;11.83;;;;;;;3.57;55.73;100021.52;1733908;82;21222;-52
2021/03/08 02:28:05;;;;;;;19.02;11.55;;;;;;;3.57;55.72;100028.80;1733603;82;21400;-54
2021/03/08 02:31:16;;;;;;;17.35;10.80;;;;;;;3.54;55.77;100023.16;1733764;82;21372;-53
2021/03/08 02:34:31;;;;;;;15.38;11.00;;;;;;;3.55;55.74;100028.08;1733688;82;21334;-53
2021/03/08 02:37:39;;;;;;;15.35;10.80;;;;;;;3.53;55.69;100031.41;1733696;82;21357;-54
2021/03/08 02:40:56;;;;;;;16.87;10.18;;;;;;;3.51;55.68;100027.50;1733656;82;21693;-54
2021/03/08 02:44:10;;;;;;;15.95;10.88;;;;;;;3.52;55.68;100022.95;1733641;82;21362;-54
2021/03/08 02:47:15;;;;;;;13.75;10.10;;;;;;;3.53;55.76;100024.16;1733635;82;21381;-53
2021/03/08 02:50:23;;;;;;;15.55;10.70;;;;;;;3.56;55.70;100022.52;1733659;82;21345;-54
2021/03/08 02:53:29;;;;;;;19.55;11.55;;;;;;;3.54;55.59;100016.87;1733745;82;21391;-54
2021/03/08 02:56:41;;;;;;;16.27;11.90;;;;;;;3.53;55.70;100010.63;1733617;82;21218;-54
2021/03/08 02:59:51;;;;;;;16.17;10.35;;;;;;;3.52;55.71;100008.90;1733499;82;21396;-53
2021/03/08 03:02:57;;;;;;;17.60;11.20;;;;;;;3.52;55.72;100010.25;1733777;81;21302;-54
2021/03/08 03:06:05;;;;;;;19.10;11.80;;;;;;;3.51;55.69;100000.44;1725775;83;21347;-54
2021/03/08 03:09:15;;;;;;;15.90;10.63;;;;;;;3.51;55.81;100001.80;1757149;81;21305;-55
2021/03/08 03:12:21;;;;;;;15.05;11.22;;;;;;;3.56;55.88;100007.64;1733513;82;21384;-55
2021/03/08 03:15:26;;;;;;;17.82;10.90;;;;;;;3.57;55.87;100007.98;1725741;83;21351;-55
2021/03/08 03:18:32;;;;;;;18.57;12.25;;;;;;;3.58;55.90;100007.02;1733417;82;21485;-54
2021/03/08 03:21:40;;;;;;;17.02;11.43;;;;;;;3.60;55.85;99992.81;1725783;83;21359;-55
2021/03/08 03:24:46;;;;;;;14.23;11.10;;;;;;;3.59;55.84;100006.00;1757289;81;21211;-55
2021/03/08 03:27:54;;;;;;;17.27;11.78;;;;;;;3.59;55.90;100002.44;1733831;82;21408;-55
2021/03/08 03:31:00;;;;;;;16.40;11.90;;;;;;;3.53;56.11;99998.45;1725867;83;21848;-55
2021/03/08 03:34:06;;;;;;;17.35;11.80;;;;;;;3.51;56.20;100003.14;1733819;82;21225;-54
2021/03/08 03:37:11;;;;;;;16.52;11.53;;;;;;;3.51;56.45;100007.20;1716412;82;21486;-55
2021/03/08 03:40:19;;;;;;;17.02;11.28;;;;;;;3.55;56.53;100006.43;1725777;83;21241;-55
2021/03/08 03:43:25;;;;;;;18.55;12.73;;;;;;;3.55;56.52;100009.97;1757440;81;21361;-55
2021/03/08 03:46:31;;;;;;;16.05;11.80;;;;;;;3.54;56.62;99993.87;1734143;82;21215;-55
2021/03/08 03:49:37;;;;;;;15.50;11.40;;;;;;;3.56;56.64;100004.07;1725735;83;21387;-54
2021/03/08 03:52:43;;;;;;;18.07;12.65;;;;;;;3.57;56.60;100009.86;1733451;82;21434;-53
2021/03/08 03:55:49;;;;;;;18.75;12.07;;;;;;;3.57;56.61;99999.87;1725867;83;21196;-53
2021/03/08 03:58:58;;;;;;;15.28;11.78;;;;;;;3.57;56.61;99995.81;1734747;81;21867;-54
2021/03/08 04:02:18;;;;;;;18.17;12.30;;;;;;;3.58;56.48;99992.62;1731535;82;21171;-54
2021/03/08 04:05:31;;;;;;;16.73;12.43;;;;;;;3.59;56.57;99984.84;1724387;83;21371;-54
2021/03/08 04:08:37;;;;;;;16.70;12.33;;;;;;;3.61;56.68;99993.20;1757238;81;21449;-53
2021/03/08 04:11:47;;;;;;;18.87;12.80;;;;;;;3.63;56.66;99988.47;1740946;82;21524;-53
2021/03/08 04:14:53;;;;;;;19.67;12.75;;;;;;;3.60;56.78;99994.17;1726065;83;21376;-56
2021/03/08 04:17:59;;;;;;;17.30;12.20;;;;;;;3.61;56.88;99990.98;1740963;82;21230;-54
2021/03/08 04:21:08;;;;;;;17.60;12.23;;;;;;;3.61;57.00;99985.08;1725800;83;21363;-53
2021/03/08 04:24:16;;;;;;;19.85;12.55;;;;;;;3.65;57.02;99982.92;1757347;81;21353;-54
2021/03/08 04:27:23;;;;;;;22.00;13.32;;;;;;;3.69;56.98;99987.06;1795545;79;21414;-54
2021/03/08 04:30:29;;;;;;;17.37;11.88;;;;;;;3.69;57.07;99986.58;1757066;81;21352;-54
2021/03/08 04:33:35;;;;;;;16.02;12.47;;;;;;;3.72;57.03;99992.19;1795547;79;21220;-54
2021/03/08 04:36:42;;;;;;;18.27;12.63;;;;;;;3.71;56.99;99983.20;1757037;81;21349;-56
2021/03/08 04:39:49;;;;;;;20.25;12.73;;;;;;;3.69;57.10;99980.30;1795459;79;21307;-53
2021/03/08 04:42:56;;;;;;;20.75;13.28;;;;;;;3.70;57.20;99970.68;1757381;81;21368;-54
2021/03/08 04:46:04;;;;;;;19.00;13.45;;;;;;;3.72;57.25;99976.81;1795702;79;21307;-56
2021/03/08 04:49:12;;;;;;;18.15;13.30;;;;;;;3.72;57.24;99975.95;1757101;81;21226;-54
2021/03/08 04:52:18;;;;;;;22.05;13.48;;;;;;;3.70;57.34;99976.09;1779291;79;21331;-56
2021/03/08 04:55:24;;;;;;;19.73;12.73;;;;;;;3.70;57.47;99972.52;1757013;81;21724;-54
2021/03/08 04:58:29;;;;;;;24.40;14.87;;;;;;;3.70;57.54;99967.11;1795663;79;21189;-54
2021/03/08 05:01:36;;;;;;;23.67;15.43;;;;;;;3.67;57.53;99966.91;1756964;81;21199;-53
2021/03/08 05:04:35;;;;;;;23.30;14.07;;;;;;;3.67;57.61;99968.27;1795309;79;21338;-53
2021/03/08 05:07:42;;;;;;;26.75;15.75;;;;;;;3.71;57.72;99968.84;1759224;81;21276;-54
2021/03/08 05:10:47;;;;;;;21.37;13.72;;;;;;;3.72;57.55;99970.05;1743237;81;21378;-54
2021/03/08 05:13:55;;;;;;;20.50;13.30;;;;;;;3.73;57.55;99968.17;1774671;80;21390;-53
2021/03/08 05:17:01;;;;;;;22.93;13.70;;;;;;;3.73;57.58;99969.53;1774249;80;21675;-54
2021/03/08 05:20:07;;;;;;;19.12;13.72;;;;;;;3.75;57.55;99981.08;1727313;82;21243;-54
2021/03/08 05:23:12;;;;;;;21.93;12.70;;;;;;;3.76;57.62;99985.52;1726780;83;21281;-53
2021/03/08 05:26:18;;;;;;;17.95;12.60;;;;;;;3.79;57.73;99982.52;1726810;83;21262;-53
2021/03/08 05:29:22;;;;;;;18.92;13.18;;;;;;;3.83;57.63;99980.73;1727676;81;21187;-55
2021/03/08 05:32:36;;;;;;;18.85;13.05;;;;;;;3.84;57.54;99982.43;1726860;82;21305;-55
2021/03/08 05:35:42;;;;;;;20.60;13.10;;;;;;;3.87;57.58;99990.27;1720780;83;21238;-54
2021/03/08 05:38:48;;;;;;;21.25;14.05;;;;;;;3.91;57.55;99994.41;1720765;83;21246;-54
2021/03/08 05:42:18;;;;;;;17.77;12.28;;;;;;;3.93;57.45;100002.39;1734384;82;21249;-54
2021/03/08 05:45:37;;;;;;;16.87;12.63;;;;;;;3.94;57.47;99991.90;1734253;82;21772;-54
2021/03/08 05:49:34;;;;;;;17.27;12.07;;;;;;;3.96;57.47;99992.13;1734357;82;21373;-54
2021/03/08 05:52:56;;;;;;;18.65;11.97;;;;;;;4.02;57.30;99996.09;1729204;83;21828;-55
2021/03/08 05:56:26;;;;;;;16.45;12.20;;;;;;;4.05;57.14;99999.38;1696482;84;21856;-56
2021/03/08 05:59:48;;;;;;;19.73;13.62;;;;;;;4.07;56.99;100000.10;1691412;84;21191;-55
2021/03/08 06:03:05;;;;;;;21.35;14.65;;;;;;;4.08;56.80;99999.09;1743298;81;21895;-55
2021/03/08 06:06:42;;;;;;;19.27;12.80;;;;;;;4.12;56.84;100003.20;1710130;81;21926;-55
2021/03/08 06:10:12;;;;;;;19.25;12.28;;;;;;;4.15;56.58;99993.47;1767590;81;21161;-55
2021/03/08 06:13:20;;;;;;;20.65;12.68;;;;;;;4.18;56.59;100010.78;1731768;82;21319;-55
2021/03/08 06:16:42;;;;;;;20.10;14.47;;;;;;;4.21;56.39;100002.36;1726825;83;21211;-54
2021/03/08 06:19:48;;;;;;;21.27;13.45;;;;;;;4.20;56.24;100008.75;1764113;81;21769;-54
2021/03/08 06:22:53;;;;;;;21.15;14.53;;;;;;;4.18;56.27;100015.33;1710180;84;21360;-54
2021/03/08 06:26:03;;;;;;;19.17;13.88;;;;;;;4.18;56.17;100013.97;1727486;82;21190;-56
2021/03/08 06:29:09;;;;;;;18.57;13.68;;;;;;;4.20;56.15;100011.98;1727068;83;21447;-56
2021/03/08 06:32:15;;;;;;;20.32;13.95;;;;;;;4.26;56.08;100012.76;1763738;81;21271;-53
2021/03/08 06:35:25;;;;;;;19.75;12.88;;;;;;;4.35;55.88;100026.28;1711017;84;21838;-55
2021/03/08 06:38:31;;;;;;;22.02;14.63;;;;;;;4.33;55.77;100012.02;1726900;83;21258;-54
2021/03/08 06:41:40;;;;;;;18.98;13.62;;;;;;;4.35;55.77;100013.23;1764480;81;21215;-54
2021/03/08 06:44:46;;;;;;;22.62;14.38;;;;;;;4.37;55.76;100013.45;1710079;84;21501;-54
2021/03/08 06:47:52;;;;;;;23.77;14.40;;;;;;;4.40;55.65;100015.88;1727214;83;21373;-55
2021/03/08 06:51:21;;;;;;;18.23;13.18;;;;;;;4.41;55.60;100016.22;1763605;81;21228;-54
2021/03/08 06:54:27;;;;;;;17.77;13.10;;;;;;;4.40;55.48;100008.23;1710375;84;21368;-54
2021/03/08 06:57:37;;;;;;;17.95;13.45;;;;;;;4.42;55.54;100003.53;1696193;84;21254;-55
2021/03/08 07:00:47;;;;;;;20.00;13.98;;;;;;;4.45;55.65;100003.23;1726947;83;21183;-54
2021/03/08 07:03:52;;;;;;;17.92;13.30;;;;;;;4.57;55.46;100009.69;1727137;83;21318;-55
2021/03/08 07:07:11;;;;;;;20.92;13.53;;;;;;;4.58;55.16;100001.06;1760843;81;21213;-54
2021/03/08 07:10:21;;;;;;;17.95;13.95;;;;;;;4.56;55.05;100003.92;1737538;82;21201;-54
2021/03/08 07:13:29;;;;;;;20.82;13.78;;;;;;;4.51;54.97;100013.48;1737662;82;21413;-54
2021/03/08 07:16:42;;;;;;;19.65;13.78;;;;;;;4.48;55.09;100005.16;1737906;82;21490;-54
2021/03/08 07:20:01;;;;;;;17.77;13.70;;;;;;;4.52;55.14;100016.53;1737758;82;21389;-55
2021/03/08 07:23:07;;;;;;;21.40;15.40;;;;;;;4.52;55.25;100005.70;1737492;82;21938;-54
2021/03/08 07:26:20;;;;;;;22.67;14.80;;;;;;;4.55;55.14;100006.27;1737721;82;21188;-55
2021/03/08 07:29:26;;;;;;;18.87;14.18;;;;;;;4.57;55.18;100002.91;1737792;82;21969;-55
2021/03/08 07:32:31;;;;;;;19.92;13.70;;;;;;;4.55;55.31;100014.39;1737808;82;21888;-54
2021/03/08 07:35:54;;;;;;;22.48;14.53;;;;;;;4.55;55.13;100007.62;1737719;82;21423;-55
2021/03/08 07:39:02;;;;;;;22.95;14.53;;;;;;;4.51;55.32;100011.64;1737433;82;21374;-54
2021/03/08 07:42:10;;;;;;;19.25;13.93;;;;;;;4.44;55.33;100010.50;1737613;82;21848;-54
2021/03/08 07:45:17;;;;;;;19.55;13.25;;;;;;;4.43;55.56;100007.45;1737704;82;21421;-55
2021/03/08 07:48:25;;;;;;;22.30;14.68;;;;;;;4.40;55.63;100018.58;1737551;82;21208;-55
2021/03/08 07:51:31;;;;;;;21.40;14.70;;;;;;;4.35;55.83;100018.16;1737610;82;21353;-55
2021/03/08 07:54:36;;;;;;;20.10;14.40;;;;;;;4.35;56.16;100011.88;1737578;82;21977;-55
2021/03/08 07:57:41;;;;;;;24.30;15.15;;;;;;;4.38;56.28;100015.16;1750859;81;21184;-56
2021/03/08 08:00:47;;;;;;;19.85;15.03;;;;;;;4.36;56.12;100008.19;1717254;82;21382;-55
2021/03/08 08:03:53;;;;;;;21.73;15.05;;;;;;;4.34;56.30;100012.89;1697428;83;21220;-55
2021/03/08 08:07:00;;;;;;;19.48;14.13;;;;;;;4.30;56.64;100006.89;1697531;84;21214;-55
2021/03/08 08:10:12;;;;;;;19.50;14.25;;;;;;;4.30;56.85;100001.48;1724239;81;21222;-55
2021/03/08 08:13:18;;;;;;;21.90;15.88;;;;;;;4.32;57.23;100004.04;1727727;82;21795;-54
2021/03/08 08:16:25;;;;;;;24.57;15.50;;;;;;;4.35;57.41;100005.97;1727733;82;21345;-55
2021/03/08 08:19:31;;;;;;;20.20;14.13;;;;;;;4.41;57.48;100010.80;1727010;83;21402;-54
2021/03/08 08:22:37;;;;;;;20.90;15.28;;;;;;;4.48;57.42;100004.30;1727969;82;21406;-55
2021/03/08 08:25:43;;;;;;;19.02;13.75;;;;;;;4.57;57.28;99994.78;1727540;82;21340;-55
2021/03/08 08:28:50;;;;;;;24.45;16.30;;;;;;;4.63;56.94;100009.09;1710336;82;21230;-56
2021/03/08 08:32:10;;;;;;;18.95;14.78;;;;;;;4.59;57.08;100003.63;1727720;82;21396;-55
2021/03/08 08:35:25;;;;;;;23.10;15.72;;;;;;;4.55;57.02;100008.14;1727962;82;21853;-55
2021/03/08 08:38:34;;;;;;;21.25;15.40;;;;;;;4.47;57.33;100004.78;1727400;82;21381;-55
2021/03/08 08:41:43;;;;;;;22.48;15.65;;;;;;;4.45;57.45;100003.23;1727712;81;21380;-55
2021/03/08 08:44:48;;;;;;;23.10;16.02;;;;;;;4.46;57.45;99999.52;1726885;83;21337;-55
2021/03/08 08:48:13;;;;;;;20.43;15.35;;;;;;;4.51;57.47;100006.22;1727043;83;21254;-56
2021/03/08 08:51:19;;;;;;;22.40;14.95;;;;;;;4.54;57.55;100000.50;1727208;83;21199;-55
2021/03/08 08:54:42;;;;;;;20.92;14.68;;;;;;;4.58;57.47;100000.55;1727395;83;21219;-57
2021/03/08 08:57:49;;;;;;;23.38;15.65;;;;;;;4.65;57.47;100002.17;1727343;83;21384;-55
2021/03/08 09:01:32;;;;;;;23.70;15.28;;;;;;;4.76;57.32;100010.64;1727278;83;21409;-55
2021/03/08 09:04:43;;;;;;;22.20;15.68;;;;;;;4.79;57.14;100001.69;1727194;83;21404;-54
2021/03/08 09:07:50;;;;;;;21.85;16.00;;;;;;;4.84;56.87;100005.30;1727098;81;21360;-55
2021/03/08 09:10:55;;;;;;;21.65;15.40;;;;;;;4.83;56.93;100008.53;1729266;80;21221;-55
2021/03/08 09:14:41;;;;;;;23.25;16.15;;;;;;;4.86;57.04;100005.52;1733037;83;21238;-55
2021/03/08 09:17:59;;;;;;;25.05;16.75;;;;;;;4.88;57.08;100013.51;1733858;83;21794;-55
2021/03/08 09:21:26;;;;;;;22.07;16.70;;;;;;;4.87;56.89;100015.88;1733243;83;21205;-55
2021/03/08 09:24:38;;;;;;;22.67;16.75;;;;;;;4.82;56.97;100020.89;1733823;83;21817;-55
2021/03/08 09:27:56;;;;;;;27.17;16.05;;;;;;;4.78;57.14;100020.33;1733313;83;21743;-54
2021/03/08 09:31:02;;;;;;;23.07;16.20;;;;;;;4.82;57.30;100014.11;1733273;83;21296;-54
2021/03/08 09:34:12;;;;;;;22.35;15.68;;;;;;;4.87;57.43;100019.42;1733186;83;21350;-54
2021/03/08 09:37:18;;;;;;;21.12;15.75;;;;;;;4.93;57.22;100022.06;1733498;83;21238;-54
2021/03/08 09:40:31;;;;;;;22.42;15.30;;;;;;;4.96;57.25;100012.27;1725672;82;21260;-55
2021/03/08 09:43:43;;;;;;;22.95;15.95;;;;;;;5.01;57.25;100015.39;1728834;82;21374;-55
2021/03/08 09:47:04;;;;;;;26.48;16.20;;;;;;;5.10;57.11;100018.55;1735260;81;21233;-54
2021/03/08 09:50:16;;;;;;;23.05;15.80;;;;;;;5.16;56.91;100023.36;1734611;82;21233;-55
2021/03/08 09:53:22;;;;;;;24.12;16.17;;;;;;;5.25;56.84;100017.06;1734706;81;21342;-54
2021/03/08 09:56:32;;;;;;;24.52;17.07;;;;;;;5.32;56.65;100026.28;1735009;82;21214;-55
2021/03/08 09:59:38;;;;;;;24.57;17.45;;;;;;;5.35;56.85;100021.91;1735276;82;21237;-55
2021/03/08 10:02:44;;;;;;;24.52;17.07;;;;;;;5.46;56.55;100018.48;1734085;82;21233;-54
2021/03/08 10:06:00;;;;;;;21.57;15.70;;;;;;;5.54;56.50;100009.08;1734003;82;21218;-54
2021/03/08 10:09:06;;;;;;;24.40;16.70;;;;;;;5.62;56.20;100018.67;1734059;82;21225;-54
2021/03/08 10:12:15;;;;;;;24.12;16.27;;;;;;;5.72;56.15;100022.68;1726148;82;21211;-55
2021/03/08 10:15:20;;;;;;;25.65;17.25;;;;;;;5.74;55.74;100014.72;1726491;81;21333;-53
2021/03/08 10:18:38;;;;;;;24.18;17.50;;;;;;;5.71;55.82;100027.73;1677613;85;21284;-54
2021/03/08 10:21:50;;;;;;;22.52;17.45;;;;;;;5.62;55.98;100017.81;1677721;85;21211;-53
2021/03/08 10:24:57;;;;;;;21.73;16.32;;;;;;;5.59;56.22;100016.77;1678463;84;21862;-56
2021/03/08 10:28:07;;;;;;;21.15;16.77;;;;;;;5.50;56.23;100010.91;1677113;85;21274;-54
2021/03/08 10:31:14;;;;;;;20.70;15.95;;;;;;;5.42;56.58;100006.73;1669518;86;21285;-54
2021/03/08 10:34:20;;;;;;;22.30;16.45;;;;;;;5.38;56.64;100008.03;1670709;84;21262;-54
2021/03/08 10:37:28;;;;;;;23.32;16.73;;;;;;;5.36;56.92;100006.00;1669748;84;21226;-55
2021/03/08 10:40:34;;;;;;;25.20;17.60;;;;;;;5.41;57.05;100002.30;1670474;84;21563;-54
2021/03/08 10:43:40;;;;;;;25.60;18.17;;;;;;;5.50;56.94;99998.16;1684052;84;21210;-54
2021/03/08 10:46:46;;;;;;;23.50;16.40;;;;;;;5.65;57.05;99992.56;1727842;81;21282;-54
2021/03/08 10:50:01;;;;;;;25.02;18.23;;;;;;;5.74;56.72;100002.49;1726593;83;21899;-55
2021/03/08 10:53:16;;;;;;;23.92;18.32;;;;;;;5.70;56.58;100002.96;1726990;83;21411;-55
2021/03/08 10:56:27;;;;;;;23.90;16.32;;;;;;;5.67;56.37;100001.42;1727710;82;21427;-55
2021/03/08 10:59:35;;;;;;;20.75;16.60;;;;;;;5.68;56.42;100000.41;1722798;81;21340;-54
2021/03/08 11:02:43;;;;;;;23.90;18.25;;;;;;;5.74;56.49;99993.52;1713736;83;21222;-53
2021/03/08 11:05:48;;;;;;;21.30;15.88;;;;;;;5.77;56.38;99986.41;1697680;84;21226;-54
2021/03/08 11:09:11;;;;;;;25.20;16.27;;;;;;;5.83;56.67;99991.25;1697764;84;21241;-54
2021/03/08 11:12:25;;;;;;;22.87;15.00;;;;;;;5.93;56.67;99981.17;1697001;83;21372;-54
2021/03/08 11:15:31;;;;;;;23.42;15.63;;;;;;;6.08;56.64;99980.95;1732795;82;21184;-53
2021/03/08 11:18:37;;;;;;;23.12;15.48;;;;;;;6.24;56.31;99994.67;1681635;85;21214;-54
2021/03/08 11:21:42;;;;;;;22.80;16.55;;;;;;;6.30;55.40;99986.37;1697863;84;21612;-54
2021/03/08 11:24:56;;;;;;;21.12;16.00;;;;;;;6.24;55.15;99981.58;1733288;82;21270;-53
2021/03/08 11:28:03;;;;;;;23.65;16.07;;;;;;;6.16;55.14;99989.17;1709544;84;21356;-53
2021/03/08 11:31:09;;;;;;;23.87;17.32;;;;;;;6.11;55.27;99995.57;1725060;83;21398;-55
2021/03/08 11:34:17;;;;;;;24.82;16.62;;;;;;;6.04;55.60;99983.12;1722879;81;21388;-54
2021/03/08 11:37:23;;;;;;;23.95;16.15;;;;;;;5.95;55.80;99984.56;1704262;84;21313;-54
2021/03/08 11:40:29;;;;;;;26.37;16.37;;;;;;;5.85;55.94;99981.09;1717141;81;21889;-54
2021/03/08 11:43:34;;;;;;;25.10;17.23;;;;;;;5.80;56.40;99980.67;1711160;83;21190;-54
2021/03/08 11:46:38;;;;;;;26.75;18.52;;;;;;;5.77;56.63;99974.20;1757049;81;21157;-54
2021/03/08 11:49:43;;;;;;;25.05;17.40;;;;;;;5.84;56.24;99980.73;1705757;84;21183;-54
2021/03/08 11:52:48;;;;;;;23.20;17.10;;;;;;;5.94;55.96;99976.08;1701774;83;21291;-54
2021/03/08 11:55:55;;;;;;;24.77;18.05;;;;;;;5.94;55.78;99982.87;1723299;82;21379;-53
2021/03/08 11:59:02;;;;;;;23.18;17.45;;;;;;;5.85;56.12;99992.79;1723478;83;21238;-53
2021/03/08 12:02:07;;;;;;;28.32;22.25;;;;;;;5.83;56.32;99998.05;1721411;81;22127;-54
2021/03/08 12:05:15;;;;;;;24.02;18.98;;;;;;;5.78;56.54;99998.48;1718654;82;21871;-54
2021/03/08 12:08:20;;;;;;;23.30;16.85;;;;;;;5.76;56.87;99998.27;1755882;80;21970;-53
2021/03/08 12:11:25;;;;;;;15.68;12.13;;;;;;;5.72;56.84;99996.36;1703097;83;21321;-55
2021/03/08 12:14:32;;;;;;;11.28;9.05;;;;;;;5.66;56.20;99998.34;1697116;82;21751;-55
2021/03/08 12:17:41;;;;;;;13.78;8.65;;;;;;;5.52;55.42;100004.79;1693348;83;21240;-53
2021/03/08 12:20:47;;;;;;;9.48;7.00;;;;;;;5.39;55.63;100030.95;1690002;85;21223;-53
2021/03/08 12:23:52;;;;;;;10.03;6.37;;;;;;;5.24;55.60;100029.77;1697602;83;21780;-53
2021/03/08 12:27:01;;;;;;;8.38;4.87;;;;;;;5.16;55.71;100058.63;1692037;84;21208;-54
2021/03/08 12:30:07;;;;;;;8.40;6.47;;;;;;;4.96;56.02;100046.16;1693141;83;21521;-53
2021/03/08 12:33:17;;;;;;;8.45;5.10;;;;;;;4.83;57.03;100055.13;1696950;83;21741;-54
2021/03/08 12:36:23;;;;;;;6.40;4.08;;;;;;;4.65;58.04;100055.55;1696591;84;21769;-53
2021/03/08 12:39:28;;;;;;;5.70;3.80;;;;;;;4.63;58.69;100070.57;1696827;84;21227;-53
2021/03/08 12:42:35;;;;;;;5.97;3.50;;;;;;;4.65;58.92;100077.23;1697061;84;21236;-54
2021/03/08 12:45:43;;;;;;;4.78;3.47;;;;;;;4.63;58.62;100080.58;1696730;84;21208;-54
2021/03/08 12:48:47;;;;;;;5.55;3.15;;;;;;;4.39;58.32;100097.31;1701778;83;21934;-54
2021/03/08 12:51:54;;;;;;;4.95;3.08;;;;;;;4.05;58.91;100104.13;1671378;84;21207;-56
2021/03/08 12:54:58;;;;;;;5.00;3.00;;;;;;;3.71;59.82;100111.77;1644155;87;21415;-56
2021/03/08 12:58:06;;;;;;;8.08;3.08;;;;;;;3.53;60.05;100113.94;1705245;83;21233;-55
2021/03/08 13:01:11;;;;;;;3.37;2.22;;;;;;;3.31;61.29;100112.80;1666445;86;21358;-53
2021/03/08 13:04:18;;;;;;;4.22;2.22;;;;;;;3.10;61.22;100120.97;1706086;83;21338;-53
2021/03/08 13:07:25;;;;;;;5.53;2.10;;;;;;;2.92;61.70;100129.32;1679404;83;21255;-54
2021/03/08 13:10:31;;;;;;;3.72;1.80;;;;;;;2.81;60.51;100116.75;1696828;84;21725;-56
2021/03/08 13:13:37;;;;;;;4.20;2.22;;;;;;;2.73;59.87;100117.05;1697483;83;21243;-56
2021/03/08 13:16:44;;;;;;;3.95;1.98;;;;;;;2.74;59.73;100126.89;1734987;81;21198;-54
2021/03/08 13:19:51;;;;;;;6.28;2.00;;;;;;;2.77;59.61;100119.86;1716218;83;21194;-54
2021/03/08 13:22:56;;;;;;;7.22;3.95;;;;;;;2.87;59.63;100131.59;1716418;83;21353;-55
2021/03/08 13:26:03;;;;;;;5.45;2.65;;;;;;;2.92;59.72;100127.97;1770628;81;21219;-54
2021/03/08 13:29:10;;;;;;;5.80;2.98;;;;;;;2.94;59.74;100119.23;1734197;82;21330;-55
2021/03/08 13:32:16;;;;;;;5.70;2.87;;;;;;;2.93;59.83;100117.54;1763791;81;21221;-57
2021/03/08 13:35:22;;;;;;;4.45;2.90;;;;;;;2.93;60.17;100133.24;1732019;82;21352;-54
2021/03/08 13:38:30;;;;;;;5.28;2.80;;;;;;;2.94;60.33;100129.56;1764391;81;21222;-54
2021/03/08 13:41:36;;;;;;;8.60;3.77;;;;;;;2.98;60.51;100122.05;1764275;81;21198;-54
2021/03/08 13:44:42;;;;;;;7.85;5.55;;;;;;;2.99;60.80;100114.30;1731591;82;21384;-54
2021/03/08 13:47:49;;;;;;;9.08;6.12;;;;;;;3.08;60.95;100117.53;1764318;81;21370;-54
2021/03/08 13:50:58;;;;;;;9.15;5.45;;;;;;;3.15;60.85;100122.77;1725474;82;21368;-55
2021/03/08 13:54:04;;;;;;;13.72;6.75;;;;;;;3.22;60.74;100129.85;1769885;79;21374;-54
2021/03/08 13:57:12;;;;;;;7.42;4.00;;;;;;;3.26;60.64;100125.87;1749317;80;21354;-54
2021/03/08 14:00:23;;;;;;;8.43;3.75;;;;;;;3.26;59.71;100124.52;1732599;82;21859;-54
2021/03/08 14:03:29;;;;;;;10.95;6.17;;;;;;;3.27;59.58;100123.55;1730652;82;21279;-54
2021/03/08 14:06:34;;;;;;;9.30;5.35;;;;;;;3.41;59.74;100124.00;1750043;81;21192;-54
2021/03/08 14:09:39;;;;;;;9.40;3.00;;;;;;;3.54;59.25;100113.80;1734288;82;21194;-53
2021/03/08 14:12:45;;;;;;;20.95;12.95;;;;;;;3.58;58.92;100113.03;1734254;82;21791;-53
2021/03/08 14:15:52;;;;;;;13.45;8.10;;;;;;;3.56;59.01;100130.77;1730536;82;21317;-53
2021/03/08 14:18:59;;;;;;;8.70;5.53;;;;;;;3.53;58.71;100131.04;1727080;83;21388;-54
2021/03/08 14:22:07;;;;;;;9.40;6.03;;;;;;;3.51;58.88;100142.48;1727260;83;21364;-54
2021/03/08 14:25:14;;;;;;;10.68;5.72;;;;;;;3.48;58.98;100144.61;1726711;83;21893;-55
2021/03/08 14:28:21;;;;;;;7.70;4.08;;;;;;;3.44;58.81;100139.13;1726877;83;21380;-55
2021/03/08 14:31:28;;;;;;;11.43;4.72;;;;;;;3.42;58.77;100132.98;1726777;83;21215;-55
2021/03/08 14:34:34;;;;;;;18.70;9.25;;;;;;;3.48;58.78;100125.66;1727000;83;21878;-54
2021/03/08 14:37:41;;;;;;;11.35;5.80;;;;;;;3.55;58.74;100126.33;1726864;83;21914;-54